Time;durP1;ratioP1;P1;durP2;ratioP2;P2;SDS_P1;SDS_P2;PMS_P1;PMS_P2;Temp;Humidity;BMP_temperature;BMP_pressure;BME280_temperature;BME280_humidity;BME280_pressure;Samples;Min_cycle;Max_cycle;Signal;HPM_P1;HPM_P2
2021/05/16 00:02:08;;;;;;;0.53;0.30;;;13.80;67.20;;;;;;5026291;28;20025;-82
2021/05/16 00:04:34;;;;;;;0.60;0.37;;;13.70;66.40;;;;;;5027858;28;20509;-82
2021/05/16 00:06:59;;;;;;;0.20;0.20;;;13.70;66.70;;;;;;5026644;28;20022;-82
2021/05/16 00:09:25;;;;;;;0.30;0.10;;;13.70;66.60;;;;;;5032769;28;20078;-82
2021/05/16 00:11:51;;;;;;;0.63;0.30;;;13.60;66.70;;;;;;5023082;28;20099;-82
2021/05/16 00:14:17;;;;;;;0.10;0.10;;;13.60;66.60;;;;;;5033639;28;20053;-81
2021/05/16 00:16:42;;;;;;;0.23;0.10;;;13.70;66.30;;;;;;5031443;28;20056;-81
2021/05/16 00:19:08;;;;;;;0.70;0.20;;;13.70;66.00;;;;;;5031689;28;20076;-81
2021/05/16 00:21:34;;;;;;;0.83;0.10;;;13.70;66.00;;;;;;5022855;28;20072;-81
2021/05/16 00:24:00;;;;;;;1.23;0.10;;;13.60;65.70;;;;;;5029936;28;20529;-81
2021/05/16 00:26:26;;;;;;;0.20;0.10;;;13.50;65.40;;;;;;5032606;28;20029;-81
2021/05/16 00:28:51;;;;;;;0.83;0.13;;;13.40;65.30;;;;;;5032158;28;20382;-81
2021/05/16 00:31:17;;;;;;;1.03;0.10;;;13.40;65.40;;;;;;5031100;28;20123;-82
2021/05/16 00:33:43;;;;;;;0.63;0.10;;;13.40;65.80;;;;;;5031972;28;20033;-81
2021/05/16 00:36:09;;;;;;;4.10;0.20;;;13.40;66.20;;;;;;5032394;28;20025;-82
2021/05/16 00:38:34;;;;;;;1.77;0.30;;;13.40;66.50;;;;;;5029692;28;20521;-81
2021/05/16 00:41:00;;;;;;;1.70;0.37;;;13.40;66.80;;;;;;5029171;28;20040;-82
2021/05/16 00:43:26;;;;;;;1.27;0.20;;;13.40;67.10;;;;;;5028651;28;20096;-82
2021/05/16 00:45:52;;;;;;;1.03;0.33;;;13.40;67.40;;;;;;5017934;28;20033;-82
2021/05/16 00:48:20;;;;;;;0.40;0.20;;;13.40;67.70;;;;;;5032096;28;20041;-81
2021/05/16 00:50:48;;;;;;;1.70;0.23;;;13.40;67.60;;;;;;5019908;28;20030;-82
2021/05/16 00:53:19;;;;;;;1.77;0.10;;;13.40;68.00;;;;;;5019449;28;20030;-81
2021/05/16 00:55:45;;;;;;;2.87;1.60;;;13.40;68.10;;;;;;5028904;28;20518;-82
2021/05/16 00:58:10;;;;;;;2.67;0.70;;;13.40;68.10;;;;;;5031856;28;20105;-81
2021/05/16 01:00:41;;;;;;;2.90;0.50;;;13.30;68.40;;;;;;5029964;28;20120;-82
2021/05/16 01:03:09;;;;;;;1.83;0.50;;;13.20;69.00;;;;;;5015732;28;20038;-82
2021/05/16 01:05:38;;;;;;;0.83;0.30;;;13.20;69.20;;;;;;5029538;28;20029;-80
2021/05/16 01:08:05;;;;;;;1.67;0.70;;;13.20;69.40;;;;;;5022080;28;20091;-80
2021/05/16 01:10:32;;;;;;;0.30;0.30;;;13.30;69.30;;;;;;5029357;28;20789;-81
2021/05/16 01:12:58;;;;;;;0.67;0.30;;;13.30;68.90;;;;;;5031008;28;20053;-81
2021/05/16 01:15:27;;;;;;;0.80;0.40;;;13.30;68.80;;;;;;5030714;28;21883;-82
2021/05/16 01:17:53;;;;;;;0.67;0.20;;;13.30;68.80;;;;;;5030839;28;20029;-82
2021/05/16 01:20:21;;;;;;;0.20;0.20;;;13.30;68.80;;;;;;5031072;28;20018;-83
2021/05/16 01:22:56;;;;;;;0.30;0.20;;;13.30;68.80;;;;;;5030807;28;20044;-83
2021/05/16 01:25:22;;;;;;;0.43;0.20;;;13.30;68.80;;;;;;5030317;28;20394;-82
2021/05/16 01:27:49;;;;;;;0.43;0.37;;;13.10;68.80;;;;;;5031338;28;20370;-83
2021/05/16 01:30:16;;;;;;;0.83;0.30;;;13.00;69.00;;;;;;5022810;28;20072;-82
2021/05/16 01:32:41;;;;;;;1.47;0.20;;;12.80;69.00;;;;;;5013746;28;20038;-82
2021/05/16 01:35:08;;;;;;;0.27;0.20;;;12.60;69.20;;;;;;5032002;28;20391;-82
2021/05/16 01:37:34;;;;;;;3.03;0.40;;;12.60;69.50;;;;;;5023128;28;20034;-82
2021/05/16 01:40:00;;;;;;;0.20;0.20;;;12.70;69.50;;;;;;5023632;28;20028;-82
2021/05/16 01:42:27;;;;;;;1.43;0.30;;;12.70;69.30;;;;;;5026746;28;20022;-81
2021/05/16 01:44:54;;;;;;;1.80;0.50;;;12.70;69.60;;;;;;5029789;28;20030;-82
2021/05/16 01:47:20;;;;;;;7.20;0.63;;;12.70;69.80;;;;;;5026136;28;20037;-82
2021/05/16 01:49:53;;;;;;;1.87;0.80;;;12.70;70.00;;;;;;5018476;28;20029;-82
2021/05/16 01:52:21;;;;;;;1.10;0.80;;;12.70;70.20;;;;;;5029458;28;20022;-82
2021/05/16 01:54:47;;;;;;;0.50;0.43;;;12.60;70.10;;;;;;5030757;28;20032;-82
2021/05/16 01:57:13;;;;;;;1.30;0.60;;;12.70;70.40;;;;;;5029295;28;20130;-82
2021/05/16 01:59:39;;;;;;;1.60;1.07;;;12.70;70.30;;;;;;5011452;28;20034;-82
2021/05/16 02:02:05;;;;;;;3.20;2.40;;;12.80;70.30;;;;;;5029707;28;20017;-82
2021/05/16 02:04:33;;;;;;;6.93;6.20;;;12.80;70.30;;;;;;5031549;28;20025;-82
2021/05/16 02:06:59;;;;;;;4.27;3.87;;;12.80;70.20;;;;;;5035300;28;20665;-83
2021/05/16 02:09:27;;;;;;;5.23;4.20;;;12.80;70.10;;;;;;5031623;28;20029;-81
2021/05/16 02:11:53;;;;;;;3.47;1.73;;;12.90;70.10;;;;;;5033012;28;20048;-82
2021/05/16 02:14:29;;;;;;;2.67;1.90;;;12.80;70.10;;;;;;5025271;28;20474;-82
2021/05/16 02:16:58;;;;;;;1.27;0.80;;;12.90;70.10;;;;;;5022015;28;20021;-82
2021/05/16 02:19:24;;;;;;;1.20;0.80;;;12.80;69.90;;;;;;5023421;28;20026;-83
2021/05/16 02:21:50;;;;;;;1.40;1.00;;;12.80;70.20;;;;;;5020991;28;20024;-83
2021/05/16 02:24:17;;;;;;;1.70;0.70;;;12.80;70.30;;;;;;5025882;28;20101;-83
2021/05/16 02:26:42;;;;;;;0.83;0.47;;;12.70;70.20;;;;;;5033168;28;20501;-83
2021/05/16 02:29:08;;;;;;;0.50;0.50;;;12.70;70.30;;;;;;5024989;28;20026;-82
2021/05/16 02:31:34;;;;;;;1.10;1.00;;;12.60;70.60;;;;;;5016079;28;20510;-82
2021/05/16 02:34:02;;;;;;;0.80;0.80;;;12.60;70.70;;;;;;5032506;28;20135;-83
2021/05/16 02:36:27;;;;;;;1.00;0.80;;;12.60;70.60;;;;;;5033745;28;20029;-82
2021/05/16 02:38:53;;;;;;;1.03;0.80;;;12.60;70.50;;;;;;5033527;28;20032;-82
2021/05/16 02:41:19;;;;;;;0.70;0.50;;;12.70;70.50;;;;;;5033550;28;20076;-82
2021/05/16 02:43:45;;;;;;;1.50;0.70;;;12.70;70.40;;;;;;5022398;28;20025;-76
2021/05/16 02:46:10;;;;;;;0.50;0.33;;;12.70;70.30;;;;;;5033877;28;20424;-76
2021/05/16 02:48:36;;;;;;;0.83;0.20;;;12.70;70.20;;;;;;5030279;28;20127;-76
2021/05/16 02:51:02;;;;;;;0.33;0.10;;;12.70;70.00;;;;;;5031301;28;20534;-75
2021/05/16 02:53:28;;;;;;;2.60;0.30;;;12.60;70.30;;;;;;5029657;28;20025;-77
2021/05/16 02:55:54;;;;;;;0.53;0.30;;;12.60;70.30;;;;;;5024687;28;20029;-76
2021/05/16 02:58:20;;;;;;;0.63;0.30;;;12.60;70.00;;;;;;5025870;28;20089;-75
2021/05/16 03:00:45;;;;;;;1.80;0.20;;;12.50;70.10;;;;;;5032644;28;20117;-75
2021/05/16 03:03:11;;;;;;;0.50;0.30;;;12.50;70.30;;;;;;5025814;28;20505;-76
2021/05/16 03:05:37;;;;;;;0.63;0.30;;;12.60;70.20;;;;;;5031937;28;20041;-76
2021/05/16 03:08:03;;;;;;;4.17;0.30;;;12.60;70.10;;;;;;5017037;28;20044;-76
2021/05/16 03:10:29;;;;;;;1.67;0.23;;;12.60;70.00;;;;;;5024830;28;20033;-76
2021/05/16 03:12:55;;;;;;;1.67;0.10;;;12.60;69.70;;;;;;5026127;28;20026;-76
2021/05/16 03:15:20;;;;;;;0.10;0.10;;;12.60;69.20;;;;;;5033759;28;20451;-78
2021/05/16 03:17:46;;;;;;;0.10;0.10;;;12.40;69.20;;;;;;5032454;28;20025;-76
2021/05/16 03:20:12;;;;;;;0.13;0.10;;;12.30;69.40;;;;;;5025916;28;20032;-76
2021/05/16 03:22:39;;;;;;;0.20;0.20;;;12.30;69.60;;;;;;5032846;28;20108;-77
2021/05/16 03:25:06;;;;;;;0.40;0.27;;;12.20;69.60;;;;;;5031942;28;20536;-76
2021/05/16 03:27:32;;;;;;;1.60;0.20;;;12.30;70.00;;;;;;5031805;28;20037;-76
2021/05/16 03:29:58;;;;;;;0.23;0.10;;;12.20;69.90;;;;;;5033046;28;20047;-77
2021/05/16 03:32:23;;;;;;;0.30;0.10;;;12.20;70.10;;;;;;5027414;28;20042;-76
2021/05/16 03:34:49;;;;;;;0.20;0.13;;;12.20;70.00;;;;;;5030257;28;20026;-77
2021/05/16 03:37:15;;;;;;;0.70;0.30;;;12.10;69.90;;;;;;5025332;28;20026;-77
2021/05/16 03:39:41;;;;;;;0.80;0.17;;;12.10;70.00;;;;;;5026895;28;20030;-76
2021/05/16 03:42:07;;;;;;;0.20;0.20;;;12.20;70.30;;;;;;5032217;28;20075;-77
2021/05/16 03:44:33;;;;;;;0.30;0.27;;;12.20;70.10;;;;;;5032211;28;20041;-76
2021/05/16 03:46:59;;;;;;;0.40;0.30;;;12.20;69.70;;;;;;5032218;28;20074;-76
2021/05/16 03:49:25;;;;;;;0.40;0.30;;;12.20;69.50;;;;;;5033288;28;20397;-76
2021/05/16 03:51:51;;;;;;;2.23;0.20;;;12.20;69.60;;;;;;5020848;28;20026;-77
2021/05/16 03:54:17;;;;;;;0.63;0.20;;;12.10;69.60;;;;;;5031233;28;20391;-76
2021/05/16 03:56:43;;;;;;;0.43;0.20;;;12.10;69.80;;;;;;5015318;28;20101;-76
2021/05/16 03:59:09;;;;;;;0.73;0.33;;;12.00;69.90;;;;;;5009302;28;20474;-76
2021/05/16 04:01:35;;;;;;;2.30;0.30;;;12.00;70.00;;;;;;5021324;28;20021;-76
2021/05/16 04:04:02;;;;;;;0.67;0.30;;;12.00;69.90;;;;;;5031728;28;20120;-76
2021/05/16 04:06:28;;;;;;;0.40;0.30;;;11.90;69.90;;;;;;5032646;28;20044;-76
2021/05/16 04:08:54;;;;;;;0.70;0.30;;;11.80;70.10;;;;;;5024943;28;20171;-77
2021/05/16 04:11:19;;;;;;;0.50;0.20;;;11.80;70.30;;;;;;5032976;28;20033;-76
2021/05/16 04:13:45;;;;;;;2.10;0.30;;;11.80;70.40;;;;;;5030584;28;20063;-76
2021/05/16 04:16:11;;;;;;;1.00;0.70;;;11.80;70.60;;;;;;5032945;28;20042;-76
2021/05/16 04:18:38;;;;;;;0.80;0.50;;;11.80;70.50;;;;;;5030720;28;20041;-76
2021/05/16 04:21:05;;;;;;;1.30;0.70;;;11.90;70.40;;;;;;5022220;28;20105;-76
2021/05/16 04:23:32;;;;;;;0.50;0.37;;;11.90;70.10;;;;;;5018295;28;20029;-77
2021/05/16 04:25:57;;;;;;;0.30;0.30;;;12.00;70.00;;;;;;5026570;28;20045;-76
2021/05/16 04:28:25;;;;;;;0.60;0.40;;;12.00;69.80;;;;;;5031266;28;20038;-75
2021/05/16 04:30:50;;;;;;;1.03;0.40;;;11.90;69.80;;;;;;5030832;28;20410;-76
2021/05/16 04:33:16;;;;;;;0.40;0.40;;;12.00;69.90;;;;;;5030742;28;20029;-76
2021/05/16 04:35:42;;;;;;;0.17;0.17;;;12.00;69.70;;;;;;5026623;28;20033;-76
2021/05/16 04:38:08;;;;;;;0.43;0.20;;;12.00;69.70;;;;;;5025378;28;20057;-75
2021/05/16 04:40:33;;;;;;;0.40;0.40;;;12.00;69.80;;;;;;5026666;28;20068;-76
2021/05/16 04:43:02;;;;;;;1.00;0.40;;;12.00;69.80;;;;;;5017766;28;20045;-76
2021/05/16 04:45:28;;;;;;;0.63;0.47;;;12.00;69.80;;;;;;5025304;28;20033;-76
2021/05/16 04:47:54;;;;;;;1.03;0.70;;;12.00;69.70;;;;;;5021247;28;20426;-77
2021/05/16 04:50:21;;;;;;;1.27;0.40;;;11.90;69.90;;;;;;5030959;28;20069;-76
2021/05/16 04:52:47;;;;;;;1.17;0.40;;;11.90;70.00;;;;;;5029941;28;20036;-76
2021/05/16 04:55:14;;;;;;;1.80;0.70;;;11.90;70.20;;;;;;5024259;28;20108;-77
2021/05/16 04:57:41;;;;;;;1.30;0.60;;;11.90;70.30;;;;;;5025983;28;20029;-78
2021/05/16 05:00:07;;;;;;;1.73;0.60;;;12.00;70.10;;;;;;5029683;28;20132;-76
2021/05/16 05:02:35;;;;;;;1.23;0.70;;;12.00;69.90;;;;;;5030706;28;20079;-76
2021/05/16 05:05:01;;;;;;;1.37;0.50;;;12.00;69.90;;;;;;5028595;28;20072;-76
2021/05/16 05:07:27;;;;;;;3.17;0.60;;;12.10;70.20;;;;;;5025513;28;20451;-76
2021/05/16 05:09:52;;;;;;;2.33;0.60;;;12.10;70.40;;;;;;5027081;28;20445;-76
2021/05/16 05:12:18;;;;;;;1.87;0.80;;;12.10;70.50;;;;;;5029614;28;20037;-77
2021/05/16 05:14:44;;;;;;;2.33;1.00;;;12.10;70.60;;;;;;5030428;28;20405;-76
2021/05/16 05:17:09;;;;;;;1.90;0.80;;;12.20;70.60;;;;;;5025914;28;20039;-75
2021/05/16 05:19:35;;;;;;;1.10;1.00;;;12.20;70.50;;;;;;5029103;28;20348;-76
2021/05/16 05:22:01;;;;;;;2.03;1.00;;;12.20;70.60;;;;;;5027548;28;20033;-76
2021/05/16 05:24:29;;;;;;;1.47;1.10;;;12.20;70.70;;;;;;5031441;28;20492;-76
2021/05/16 05:26:55;;;;;;;1.20;1.00;;;12.30;70.70;;;;;;5028646;28;20026;-76
2021/05/16 05:29:21;;;;;;;1.17;1.07;;;12.20;70.50;;;;;;5028895;28;20095;-76
2021/05/16 05:31:47;;;;;;;4.37;1.77;;;12.30;70.60;;;;;;5030776;28;20041;-76
2021/05/16 05:34:13;;;;;;;15.63;3.90;;;12.30;70.80;;;;;;5030402;28;20034;-76
2021/05/16 05:36:39;;;;;;;7.90;2.07;;;12.30;70.80;;;;;;5029112;28;20382;-77
2021/05/16 05:39:06;;;;;;;2.50;1.80;;;12.40;70.80;;;;;;5022501;28;20030;-77
2021/05/16 05:41:31;;;;;;;2.00;1.30;;;12.40;70.90;;;;;;5025371;28;20553;-78
2021/05/16 05:43:57;;;;;;;9.37;1.40;;;12.40;71.00;;;;;;5029034;28;20167;-77
2021/05/16 05:46:23;;;;;;;22.00;7.67;;;12.50;71.10;;;;;;5031692;28;20051;-78
2021/05/16 05:48:49;;;;;;;115.80;36.00;;;12.50;71.90;;;;;;5027354;28;20456;-77
2021/05/16 05:51:15;;;;;;;74.30;24.70;;;12.50;71.20;;;;;;5029765;28;20121;-77
2021/05/16 05:53:41;;;;;;;44.83;14.97;;;12.50;71.20;;;;;;5029844;28;20025;-77
2021/05/16 05:56:07;;;;;;;10.40;4.47;;;12.60;71.20;;;;;;5028688;28;20033;-77
2021/05/16 05:58:35;;;;;;;80.83;25.07;;;12.60;71.20;;;;;;5029408;28;20080;-77
2021/05/16 06:01:02;;;;;;;36.70;12.93;;;12.70;71.10;;;;;;5026661;28;20022;-77
2021/05/16 06:03:28;;;;;;;24.80;9.97;;;12.70;71.00;;;;;;5030065;28;20092;-77
2021/05/16 06:05:54;;;;;;;4.60;2.60;;;12.70;70.90;;;;;;5029532;28;20030;-77
2021/05/16 06:08:20;;;;;;;26.60;10.57;;;12.60;70.70;;;;;;5028841;28;20026;-78
2021/05/16 06:10:46;;;;;;;6.13;3.40;;;12.60;71.00;;;;;;5029014;28;20083;-77
2021/05/16 06:13:12;;;;;;;11.60;4.10;;;12.60;71.10;;;;;;5029652;28;20478;-77
2021/05/16 06:15:38;;;;;;;4.50;2.80;;;12.60;70.90;;;;;;5030219;28;20083;-77
2021/05/16 06:18:04;;;;;;;2.87;2.23;;;12.60;70.90;;;;;;5026716;28;20437;-77
2021/05/16 06:20:30;;;;;;;4.97;2.43;;;12.50;70.90;;;;;;5019979;28;20056;-77
2021/05/16 06:22:57;;;;;;;3.60;2.33;;;12.60;70.80;;;;;;5023541;28;20033;-77
2021/05/16 06:25:23;;;;;;;3.40;3.10;;;12.60;70.80;;;;;;5028593;28;20132;-77
2021/05/16 06:27:49;;;;;;;4.03;1.80;;;12.60;70.70;;;;;;5029052;28;20108;-77
2021/05/16 06:30:16;;;;;;;1.57;1.23;;;12.60;71.10;;;;;;5028774;28;20060;-76
2021/05/16 06:32:42;;;;;;;1.57;1.10;;;12.60;70.50;;;;;;5029649;28;20045;-75
2021/05/16 06:35:09;;;;;;;1.30;1.20;;;12.60;70.50;;;;;;5030325;28;20033;-76
2021/05/16 06:37:35;;;;;;;2.80;1.57;;;12.60;70.50;;;;;;5023249;28;20074;-76
2021/05/16 06:40:01;;;;;;;7.43;5.43;;;12.70;70.50;;;;;;5023007;28;20022;-77
2021/05/16 06:42:27;;;;;;;4.20;2.03;;;12.70;70.40;;;;;;5025695;28;20112;-76
2021/05/16 06:44:53;;;;;;;2.47;1.70;;;12.70;70.40;;;;;;5018841;28;20168;-75
2021/05/16 06:47:28;;;;;;;2.80;1.83;;;12.70;70.40;;;;;;5025671;28;20101;-75
2021/05/16 06:49:54;;;;;;;2.43;1.80;;;12.80;70.50;;;;;;5026777;28;20042;-78
2021/05/16 06:52:20;;;;;;;1.90;1.70;;;12.90;70.40;;;;;;5032929;28;20113;-77
2021/05/16 06:54:46;;;;;;;4.10;1.57;;;13.00;70.30;;;;;;5026689;28;20021;-76
2021/05/16 06:57:11;;;;;;;3.00;1.10;;;13.10;70.30;;;;;;5032796;28;20383;-77
2021/05/16 06:59:38;;;;;;;1.67;1.00;;;13.20;70.20;;;;;;5032244;28;20030;-76
2021/05/16 07:02:04;;;;;;;1.20;0.87;;;13.20;70.00;;;;;;5031851;28;20037;-76
2021/05/16 07:04:30;;;;;;;0.93;0.70;;;13.40;70.40;;;;;;5024377;28;20026;-76
2021/05/16 07:06:55;;;;;;;2.87;0.80;;;13.60;69.50;;;;;;5022491;28;20171;-76
2021/05/16 07:09:21;;;;;;;2.57;0.50;;;13.70;68.90;;;;;;5024574;28;20079;-76
2021/05/16 07:11:47;;;;;;;2.00;0.67;;;13.80;68.60;;;;;;5032875;28;20552;-77
2021/05/16 07:14:14;;;;;;;0.90;0.73;;;14.00;68.40;;;;;;5023757;28;20022;-76
2021/05/16 07:16:39;;;;;;;1.57;0.43;;;14.20;68.30;;;;;;5030692;28;20021;-77
2021/05/16 07:19:05;;;;;;;0.77;0.37;;;14.30;67.80;;;;;;5028022;28;20036;-76
2021/05/16 07:21:31;;;;;;;1.90;0.60;;;14.40;67.40;;;;;;5031297;28;20033;-76
2021/05/16 07:23:57;;;;;;;2.00;0.40;;;14.50;67.00;;;;;;5030435;28;20042;-76
2021/05/16 07:26:23;;;;;;;0.53;0.30;;;14.40;66.70;;;;;;5032879;28;20034;-76
2021/05/16 07:28:50;;;;;;;0.80;0.30;;;14.50;66.40;;;;;;5025186;28;20116;-76
2021/05/16 07:31:16;;;;;;;0.60;0.30;;;14.50;66.00;;;;;;5029301;28;20046;-76
2021/05/16 07:33:42;;;;;;;1.43;0.50;;;14.60;65.70;;;;;;5022879;28;20030;-76
2021/05/16 07:36:08;;;;;;;1.43;0.43;;;14.60;65.40;;;;;;5031748;28;20625;-76
2021/05/16 07:38:35;;;;;;;0.43;0.20;;;14.70;65.00;;;;;;5030114;28;20048;-76
2021/05/16 07:41:01;;;;;;;0.57;0.23;;;14.80;64.90;;;;;;5021210;28;20034;-77
2021/05/16 07:43:26;;;;;;;0.53;0.47;;;15.00;64.90;;;;;;5033577;28;20045;-76
2021/05/16 07:45:53;;;;;;;0.87;0.47;;;15.10;64.30;;;;;;5028304;28;20041;-76
2021/05/16 07:48:19;;;;;;;0.67;0.50;;;15.20;63.80;;;;;;5016617;28;20033;-76
2021/05/16 07:50:45;;;;;;;0.87;0.60;;;15.30;63.50;;;;;;5025170;28;20124;-77
2021/05/16 07:53:12;;;;;;;1.25;0.50;;;15.40;63.30;;;;;;5029546;28;20041;-77
2021/05/16 07:55:40;;;;;;;3.03;0.40;;;15.50;63.10;;;;;;5022178;28;20056;-76
2021/05/16 07:58:06;;;;;;;1.42;0.50;;;15.60;62.80;;;;;;5028141;28;20029;-77
2021/05/16 08:00:31;;;;;;;1.05;0.30;;;15.70;62.50;;;;;;5032609;28;20032;-76
2021/05/16 08:02:57;;;;;;;0.75;0.47;;;15.80;62.10;;;;;;5026592;28;20030;-76
2021/05/16 08:05:23;;;;;;;3.78;0.47;;;15.90;61.60;;;;;;5031443;28;20025;-77
2021/05/16 08:07:49;;;;;;;0.95;0.50;;;15.90;61.20;;;;;;5031087;28;20025;-76
2021/05/16 08:10:19;;;;;;;1.33;0.55;;;15.90;61.10;;;;;;5027286;28;20037;-77
2021/05/16 08:12:45;;;;;;;1.10;0.47;;;15.90;61.20;;;;;;5028360;28;20034;-76
2021/05/16 08:15:11;;;;;;;0.82;0.45;;;15.90;61.50;;;;;;5016099;28;20376;-76
2021/05/16 08:17:37;;;;;;;2.15;0.40;;;16.00;61.40;;;;;;5033088;28;20036;-77
2021/05/16 08:20:08;;;;;;;1.40;0.57;;;16.10;61.40;;;;;;5029155;28;20030;-82
2021/05/16 08:22:33;;;;;;;1.10;0.40;;;16.20;61.00;;;;;;5027060;28;20060;-82
2021/05/16 08:24:59;;;;;;;0.38;0.28;;;16.30;60.60;;;;;;5030393;28;20061;-82
2021/05/16 08:27:25;;;;;;;0.70;0.40;;;16.40;59.90;;;;;;5026530;28;20084;-82
2021/05/16 08:29:51;;;;;;;0.70;0.40;;;16.50;59.30;;;;;;5025589;28;20355;-82
2021/05/16 08:32:16;;;;;;;0.63;0.40;;;16.60;59.10;;;;;;5035120;28;20053;-82
2021/05/16 08:34:42;;;;;;;0.40;0.40;;;16.80;59.00;;;;;;5038244;28;20435;-82
2021/05/16 08:37:10;;;;;;;0.60;0.40;;;16.90;58.80;;;;;;5026702;28;20479;-82
2021/05/16 08:39:36;;;;;;;0.93;0.50;;;17.00;58.80;;;;;;5032125;28;20437;-82
2021/05/16 08:42:02;;;;;;;1.45;0.60;;;16.90;58.80;;;;;;5028996;28;20053;-82
2021/05/16 08:44:31;;;;;;;0.70;0.55;;;16.90;58.90;;;;;;5024464;28;20038;-82
2021/05/16 08:46:58;;;;;;;1.05;0.60;;;16.90;58.90;;;;;;5029223;28;20123;-82
2021/05/16 08:49:24;;;;;;;1.25;0.60;;;16.90;58.90;;;;;;5024980;28;20036;-82
2021/05/16 08:51:50;;;;;;;1.00;0.50;;;16.90;58.70;;;;;;5035777;28;20108;-82
2021/05/16 08:54:27;;;;;;;2.35;0.47;;;16.90;58.70;;;;;;5024020;28;20075;-82
2021/05/16 08:56:55;;;;;;;0.38;0.30;;;16.90;58.60;;;;;;5023839;28;20037;-82
2021/05/16 08:59:23;;;;;;;0.28;0.25;;;17.00;58.70;;;;;;5030154;28;20068;-82
2021/05/16 09:02:00;;;;;;;3.85;0.30;;;17.00;58.20;;;;;;5026512;28;20079;-81
2021/05/16 09:04:38;;;;;;;4.05;0.60;;;17.00;57.50;;;;;;5020822;28;20080;-82
2021/05/16 09:07:14;;;;;;;0.80;0.30;;;17.10;57.20;;;;;;5028349;28;20025;-82
2021/05/16 09:09:41;;;;;;;1.60;0.40;;;17.20;56.90;;;;;;5015108;28;20025;-82
2021/05/16 09:12:08;;;;;;;0.30;0.30;;;17.30;56.50;;;;;;5033561;28;20038;-82
2021/05/16 09:14:52;;;;;;;1.20;0.63;;;17.30;56.20;;;;;;5023240;28;20022;-81
2021/05/16 09:17:39;;;;;;;1.20;0.65;;;17.40;55.30;;;;;;5040892;28;20082;-81
2021/05/16 09:20:11;;;;;;;0.30;0.30;;;17.50;54.70;;;;;;5023472;28;20060;-81
2021/05/16 09:22:42;;;;;;;0.60;0.43;;;17.50;55.00;;;;;;5020087;28;20462;-81
2021/05/16 09:25:13;;;;;;;0.40;0.30;;;17.60;54.70;;;;;;5027529;28;20040;-81
2021/05/16 09:27:40;;;;;;;2.35;0.40;;;17.70;54.30;;;;;;5027783;28;20030;-81
2021/05/16 09:30:18;;;;;;;0.85;0.70;;;17.70;53.90;;;;;;5031067;28;20029;-82
2021/05/16 09:32:53;;;;;;;0.55;0.50;;;17.70;53.50;;;;;;5032644;28;20037;-81
2021/05/16 09:35:30;;;;;;;0.50;0.40;;;17.70;53.60;;;;;;5030507;28;20616;-81
2021/05/16 09:38:04;;;;;;;0.40;0.40;;;17.70;53.30;;;;;;5012171;28;20030;-81
2021/05/16 09:40:54;;;;;;;1.05;0.35;;;17.70;53.10;;;;;;5031357;28;20032;-81
2021/05/16 09:43:31;;;;;;;0.88;0.50;;;17.70;52.80;;;;;;5022875;28;20120;-82
2021/05/16 09:46:01;;;;;;;0.35;0.35;;;17.80;52.80;;;;;;5023054;28;20048;-81
2021/05/16 09:48:38;;;;;;;1.77;0.65;;;17.90;52.60;;;;;;5029481;28;20120;-81
2021/05/16 09:51:05;;;;;;;1.80;0.60;;;17.90;52.60;;;;;;5027042;28;20029;-80
2021/05/16 09:53:30;;;;;;;0.75;0.30;;;18.00;52.40;;;;;;5032554;28;20037;-81
2021/05/16 09:56:25;;;;;;;0.30;0.30;;;18.00;52.20;;;;;;5028725;28;20030;-81
2021/05/16 09:58:53;;;;;;;0.70;0.40;;;18.00;52.00;;;;;;5031915;28;20370;-81
2021/05/16 10:01:20;;;;;;;2.70;0.73;;;18.00;52.10;;;;;;5024369;28;20030;-81
2021/05/16 10:03:48;;;;;;;0.60;0.40;;;18.00;51.90;;;;;;5032209;28;20402;-81
2021/05/16 10:06:14;;;;;;;0.60;0.40;;;18.00;51.80;;;;;;5023192;28;20060;-81
2021/05/16 10:08:42;;;;;;;1.23;0.90;;;18.10;51.90;;;;;;5027422;28;20037;-81
2021/05/16 10:11:07;;;;;;;0.50;0.30;;;18.00;51.40;;;;;;5030031;28;20037;-81
2021/05/16 10:13:37;;;;;;;0.90;0.50;;;17.90;51.00;;;;;;5027174;28;20080;-81
2021/05/16 10:16:03;;;;;;;0.30;0.30;;;17.80;51.20;;;;;;5026476;28;20021;-81
2021/05/16 10:18:34;;;;;;;2.03;0.30;;;17.90;51.40;;;;;;5030706;28;20026;-81
2021/05/16 10:21:05;;;;;;;1.02;0.80;;;17.90;51.70;;;;;;5024326;28;20046;-81
2021/05/16 10:23:34;;;;;;;1.42;0.45;;;17.90;51.90;;;;;;5031069;28;20038;-81
2021/05/16 10:26:18;;;;;;;0.75;0.50;;;17.90;51.80;;;;;;5027636;28;20445;-81
2021/05/16 10:28:56;;;;;;;3.72;0.57;;;18.00;51.90;;;;;;5022741;28;20032;-81
2021/05/16 10:31:42;;;;;;;1.13;0.50;;;18.10;51.70;;;;;;5033447;28;20065;-82
2021/05/16 10:34:23;;;;;;;0.65;0.52;;;18.30;51.00;;;;;;5033867;28;20402;-82
2021/05/16 10:36:49;;;;;;;0.88;0.40;;;18.50;50.70;;;;;;5033883;28;20017;-81
2021/05/16 10:39:51;;;;;;;2.25;0.38;;;18.60;50.50;;;;;;5043622;28;20045;-81
2021/05/16 10:42:23;;;;;;;0.57;0.40;;;18.80;49.80;;;;;;5013233;28;20025;-81
2021/05/16 10:45:04;;;;;;;0.57;0.40;;;18.90;49.40;;;;;;5026153;28;20076;-82
2021/05/16 10:47:42;;;;;;;0.28;0.28;;;19.00;49.10;;;;;;5028091;28;20427;-82
2021/05/16 10:50:29;;;;;;;1.20;0.50;;;19.00;48.90;;;;;;5033800;28;20033;-82
2021/05/16 10:53:08;;;;;;;0.68;0.40;;;19.10;49.20;;;;;;5033291;28;20041;-81
2021/05/16 10:55:42;;;;;;;0.77;0.50;;;19.30;49.40;;;;;;5032747;28;20029;-81
2021/05/16 10:58:31;;;;;;;0.80;0.45;;;19.60;49.10;;;;;;5032218;28;20402;-81
2021/05/16 11:01:08;;;;;;;0.35;0.30;;;19.90;49.10;;;;;;5033205;28;20029;-76
2021/05/16 11:03:43;;;;;;;0.80;0.30;;;20.10;48.60;;;;;;5032692;28;20039;-77
2021/05/16 11:06:09;;;;;;;1.67;0.40;;;20.30;48.20;;;;;;5022798;28;20037;-77
2021/05/16 11:08:34;;;;;;;0.40;0.32;;;20.40;47.90;;;;;;5032158;28;20474;-77
2021/05/16 11:11:21;;;;;;;2.15;0.40;;;20.50;47.70;;;;;;5031507;28;20033;-77
2021/05/16 11:13:48;;;;;;;2.42;0.38;;;20.50;47.30;;;;;;5032367;28;20125;-78
2021/05/16 11:16:13;;;;;;;0.95;0.52;;;20.40;47.20;;;;;;5032727;28;20028;-78
2021/05/16 11:18:39;;;;;;;2.65;0.50;;;20.30;46.70;;;;;;5021424;28;20370;-78
2021/05/16 11:21:08;;;;;;;0.45;0.28;;;20.30;47.00;;;;;;5027592;28;20121;-77
2021/05/16 11:23:40;;;;;;;0.52;0.32;;;20.20;47.00;;;;;;5035963;28;20370;-78
2021/05/16 11:26:14;;;;;;;0.70;0.47;;;20.30;47.10;;;;;;5032586;28;20029;-76
2021/05/16 11:28:45;;;;;;;0.63;0.40;;;20.30;46.80;;;;;;5030907;28;20021;-77
2021/05/16 11:31:19;;;;;;;1.20;0.73;;;20.30;46.90;;;;;;5028885;28;20038;-77
2021/05/16 11:33:47;;;;;;;1.23;0.40;;;20.20;46.70;;;;;;5027538;28;20040;-77
2021/05/16 11:36:19;;;;;;;2.45;0.50;;;20.10;46.80;;;;;;5031763;28;20413;-77
2021/05/16 11:38:47;;;;;;;2.00;0.40;;;20.10;46.80;;;;;;5030553;28;20022;-78
2021/05/16 11:41:28;;;;;;;0.65;0.50;;;20.30;46.70;;;;;;5038259;28;20083;-77
2021/05/16 11:43:54;;;;;;;0.82;0.52;;;20.40;46.10;;;;;;5029715;28;20154;-77
2021/05/16 11:46:31;;;;;;;0.93;0.40;;;20.60;46.30;;;;;;5030455;28;20181;-77
2021/05/16 11:48:58;;;;;;;1.95;0.45;;;20.80;45.50;;;;;;5025049;28;20051;-77
2021/05/16 11:51:25;;;;;;;2.00;0.47;;;20.80;45.30;;;;;;5030542;28;20581;-77
2021/05/16 11:53:59;;;;;;;0.40;0.40;;;21.00;44.70;;;;;;5021457;28;20382;-77
2021/05/16 11:56:29;;;;;;;1.13;0.60;;;21.00;44.70;;;;;;5023970;28;20105;-77
2021/05/16 11:58:59;;;;;;;0.55;0.38;;;21.20;44.50;;;;;;5028659;28;20021;-77
2021/05/16 12:01:32;;;;;;;1.50;0.40;;;21.30;44.30;;;;;;5024500;28;20477;-77
2021/05/16 12:04:00;;;;;;;1.88;0.40;;;21.40;43.60;;;;;;5022332;28;20816;-77
2021/05/16 12:06:30;;;;;;;0.82;0.32;;;21.20;43.80;;;;;;5031250;28;20040;-77
2021/05/16 12:08:58;;;;;;;0.30;0.30;;;21.10;43.70;;;;;;5023713;28;20025;-77
2021/05/16 12:11:24;;;;;;;1.38;0.60;;;20.80;43.50;;;;;;5031835;28;20554;-77
2021/05/16 12:13:50;;;;;;;1.92;0.93;;;20.70;44.30;;;;;;5021298;28;20120;-78
2021/05/16 12:16:18;;;;;;;1.05;0.60;;;20.80;44.30;;;;;;5031428;28;20092;-77
2021/05/16 12:18:45;;;;;;;2.30;0.40;;;20.80;44.10;;;;;;5026157;28;20056;-77
2021/05/16 12:21:14;;;;;;;1.08;0.57;;;21.00;44.60;;;;;;5028610;28;20049;-77
2021/05/16 12:23:48;;;;;;;1.95;0.50;;;21.10;44.20;;;;;;5031710;28;20026;-77
2021/05/16 12:26:14;;;;;;;1.05;0.50;;;21.10;44.20;;;;;;5025401;28;20033;-82
2021/05/16 12:28:41;;;;;;;2.20;0.40;;;21.20;44.20;;;;;;5031594;28;20047;-82
2021/05/16 12:31:08;;;;;;;1.83;0.40;;;21.20;44.10;;;;;;5027118;28;20042;-82
2021/05/16 12:33:37;;;;;;;1.45;0.70;;;21.30;44.10;;;;;;5035079;28;20402;-82
2021/05/16 12:36:04;;;;;;;1.48;0.43;;;21.30;43.60;;;;;;5038106;28;20021;-82
2021/05/16 12:38:50;;;;;;;1.75;0.40;;;21.10;43.70;;;;;;5032149;28;20026;-82
2021/05/16 12:41:23;;;;;;;1.08;0.40;;;21.00;43.80;;;;;;5031628;28;20474;-82
2021/05/16 12:44:09;;;;;;;2.00;0.68;;;20.90;43.90;;;;;;5025995;28;20029;-82
2021/05/16 12:46:42;;;;;;;4.43;0.98;;;20.80;43.80;;;;;;5023076;28;20022;-81
2021/05/16 12:49:08;;;;;;;0.57;0.30;;;20.60;44.00;;;;;;5024211;28;20033;-82
2021/05/16 12:51:34;;;;;;;1.33;0.40;;;20.50;44.00;;;;;;5024869;28;20144;-81